Nilo Pecanha, Brazil
Current Conditions -  °F | °C
As of 3:00 PM on Thursday 27 Nov 2014 (Local Time) from SBSV Reporting Station
Scattered Clouds Scattered Clouds  
Wind Chill: 82°   Ceiling: Unl
Heat Index: 86°   Visibility: 6mi
Dew Point: 70°   Wind: 17mph
Humidity: 66%   Direction: 80°E
Pressure: 29.88"   Gusts: NA
Location:  13.62°S, 39.08°W
Report Text: SBSV 271800Z 08015KT 9999 SCT017 28/21 Q1012
Loading
Personal Weather Stations






























Interactive Weather Map New forecast layout! Learn more

10-Day Weather Forecast

Advertisements
Track Severe Weather on mobile